• Join FlightAware (Why Join?)
  • Login
  • US Flag 
07:17AM EDT


 

Airport Tracker/Info


-or-


 

Live Flight TrackerFlight Track Log ✈ SWA402 ✈ 14-Jul-2013 ✈ KALB - KMCO

Flight Track Log - Related Links

Times and Time Zones

All times are in EDT time to prevent confusion due to time zone crossing. See the SWA402 flight status page for this flight to view local times or setup timezone preferences in your user account.

Time Position Orientation Groundspeed Altitude Reporting Facility
EDT Latitude Longitude Course Direction KTS MPH feet Rate Location/Type
07:05AM 42.7714 -73.8092 332° Northwest 152 175 1,600  Level Boston Center
07:06AM 42.8147 -73.8411 332° Northwest 202 232 3,700 2,520 Climbing Boston Center
07:07AM 42.8642 -73.9044 317° Northwest 235 270 6,900 3,120 Climbing Boston Center
07:08AM 42.9092 -73.9653 315° West 221 254 10,400 2,700 Climbing Boston Center
07:09AM 42.8644 -74.0236 224° Southwest 189 217 12,300 1,920 Climbing Boston Center
07:10AM 42.7775 -73.9875 163° South 217 250 14,300 2,400 Climbing Boston Center
07:11AM 42.6758 -73.9453 163° South 316 364 17,100 2,520 Climbing Boston Center
07:12AM 42.5722 -73.9033 163° South 354 407 19,400 2,340 Climbing Boston Center
07:13AM 42.4625 -73.8586 163° South 390 449 21,800 1,800 Climbing Boston Center
07:14AM 42.3483 -73.8194 166° South 412 474 23,000 600 Climbing Boston Center
07:15AM 42.2342 -73.7775 165° South 419 482 23,000  Level Boston Center
07:16AM 42.1139 -73.7331 165° South 419 482 23,000  Level Boston Center
07:17AM 42.0039 -73.6917 164° South 413 475 23,100 780 Climbing Boston Center
07:18AM 41.8908 -73.7231 192° South 402 463 24,600 1,560 Climbing Boston Center
07:19AM 41.7778 -73.7708 197° South 412 474 26,300 1,740 Climbing Boston Center
07:22AM 41.4828 -73.8117 186° South 458 527 30,700 1,800 Climbing New York Center
07:23AM 41.3517 -73.8086 179° South 468 539 32,700 1,860 Climbing New York Center
07:24AM 41.2206 -73.8025 178° South 468 539 34,500 1,560 Climbing New York Center
07:25AM 41.0897 -73.7939 177° South 473 544 35,900 1,260 Climbing New York Center
07:26AM 40.9697 -73.8436 197° South 460 529 37,100 1,020 Climbing New York Center
07:27AM 40.8569 -73.9289 210° Southwest 454 522 38,000 420 Climbing New York Center
07:28AM 40.7336 -74.0192 209° Southwest 463 533 38,000  Level New York Center
07:29AM 40.6228 -74.1094 212° Southwest 469 540 38,000  Level New York Center
07:30AM 40.5119 -74.1914 209° Southwest 474 545 38,000  Level New York Center
07:31AM 40.3992 -74.2786 211° Southwest 474 545 38,000  Level New York Center
07:32AM 40.2017 -74.4317 211° Southwest 440 506 38,000  Level Washington Center
07:33AM 40.0900 -74.5150 210° Southwest 451 519 38,000  Level Washington Center
07:34AM 39.9781 -74.6006 210° Southwest 458 527 38,000  Level Washington Center
07:35AM 39.8664 -74.6833 210° Southwest 463 533 38,000  Level Washington Center
07:36AM 39.7503 -74.7656 209° Southwest 463 533 38,000  Level Washington Center
07:37AM 39.6361 -74.8558 211° Southwest 480 552 38,000  Level Washington Center
07:38AM 39.5283 -74.9406 211° Southwest 480 552 38,000  Level Washington Center
07:39AM 39.4164 -75.0275 211° Southwest 475 547 38,000  Level Washington Center
07:40AM 39.3042 -75.1061 208° Southwest 469 540 38,000  Level Washington Center
07:41AM 39.1856 -75.1847 207° Southwest 462 532 38,000  Level Washington Center
07:42AM 39.0692 -75.2519 204° Southwest 462 532 38,000  Level Washington Center
07:43AM 38.9525 -75.3194 204° Southwest 467 537 38,000  Level Washington Center
07:44AM 38.8339 -75.3917 205° Southwest 467 537 38,000  Level Washington Center
07:45AM 38.7153 -75.4614 205° Southwest 467 537 38,000  Level Washington Center
07:46AM 38.5964 -75.5278 204° Southwest 467 537 38,000  Level Washington Center
07:47AM 38.4756 -75.5969 204° Southwest 462 532 38,000  Level Washington Center
07:48AM 38.3567 -75.6633 204° Southwest 462 532 38,000  Level Washington Center
07:49AM 38.2397 -75.7106 198° South 474 545 38,000  Level Washington Center
07:50AM 38.1167 -75.7658 199° South 474 545 38,000  Level Washington Center
07:51AM 37.9831 -75.8314 201° Southwest 474 545 38,000  Level Washington Center
07:52AM 37.8703 -75.8786 198° South 474 545 38,000  Level Washington Center
07:53AM 37.7514 -75.9436 203° Southwest 468 539 38,000  Level Washington Center
07:54AM 37.6281 -76.0008 200° South 473 544 38,000  Level Washington Center
07:55AM 37.5069 -76.0553 200° South 473 544 38,000  Level Washington Center
07:56AM 37.3836 -76.1094 199° South 473 544 38,000  Level Washington Center
07:57AM 37.2542 -76.1606 197° South 473 544 38,000  Level Washington Center
07:58AM 37.1308 -76.2172 200° South 478 550 38,000  Level Washington Center
07:59AM 37.0053 -76.2733 200° South 478 550 38,000  Level Washington Center
08:00AM 36.8819 -76.3294 200° South 478 550 38,000  Level Washington Center
08:01AM 36.7564 -76.3878 200° South 478 550 38,000  Level Washington Center
08:02AM 36.6350 -76.4461 201° Southwest 478 550 38,000  Level Washington Center
08:03AM 36.4947 -76.5067 199° South 478 550 38,000  Level Washington Center
08:04AM 36.3733 -76.5567 198° South 478 550 38,000  Level Washington Center
08:05AM 36.2497 -76.6119 200° South 478 550 38,000  Level Washington Center
08:06AM 36.1283 -76.6644 199° South 470 541 38,000  Level Washington Center
08:07AM 36.0047 -76.7142 198° South 465 535 38,000  Level Washington Center
08:08AM 35.8853 -76.7689 200° South 465 535 38,000  Level Washington Center
08:09AM 35.7658 -76.8208 199° South 465 535 38,000  Level Washington Center
08:10AM 35.6464 -76.8700 198° South 465 535 38,000  Level Washington Center
08:11AM 35.5458 -76.9194 202° Southwest 458 527 38,000  Level Washington Center
08:12AM 35.4200 -76.9708 198° South 453 521 38,000  Level Washington Center
08:13AM 35.3025 -77.0225 200° South 453 521 38,000  Level Washington Center
08:14AM 35.1789 -77.0736 199° South 463 533 38,000  Level Washington Center
08:15AM 35.0592 -77.1272 200° South 468 539 38,000  Level Washington Center
08:16AM 34.9353 -77.1781 199° South 468 539 38,000  Level Washington Center
08:17AM 34.8178 -77.2314 200° South 463 533 38,000  Level Washington Center
08:18AM 34.6939 -77.2844 199° South 463 533 38,000  Level Washington Center
08:19AM 34.5700 -77.3375 199° South 469 540 38,000  Level Washington Center
08:20AM 34.4464 -77.3878 199° South 469 540 38,000  Level Washington Center
08:21AM 34.3203 -77.4403 199° South 469 540 38,000  Level Washington Center
08:22AM 34.1986 -77.4878 198° South 469 540 38,000  Level Washington Center
08:23AM 34.0706 -77.5400 199° South 469 540 38,000  Level Washington Center
08:24AM 33.9444 -77.5919 199° South 469 540 38,000  Level Washington Center
08:26AM 33.7658 -77.6664 199° South 473 544 38,000  Level Jacksonville Center
08:27AM 33.6367 -77.7217 200° South 478 550 38,000  Level Jacksonville Center
08:28AM 33.5114 -77.7711 198° South 478 550 38,000  Level Jacksonville Center
08:29AM 33.3842 -77.8233 199° South 478 550 38,000  Level Jacksonville Center
08:30AM 33.2608 -77.8750 199° South 478 550 38,000  Level Jacksonville Center
08:31AM 33.1336 -77.9292 200° South 478 550 38,000  Level Jacksonville Center
08:32AM 33.0061 -77.9761 197° South 478 550 38,000  Level Jacksonville Center
08:33AM 32.8786 -78.0250 198° South 478 550 38,000  Level Jacksonville Center
08:34AM 32.7556 -78.0786 200° South 478 550 38,000  Level Jacksonville Center
08:35AM 32.6300 -78.1272 198° South 478 550 38,000  Level Jacksonville Center
08:36AM 32.5067 -78.1806 200° South 478 550 38,000  Level Jacksonville Center
08:37AM 32.3833 -78.2261 197° South 478 550 38,000  Level Jacksonville Center
08:38AM 32.2764 -78.2733 200° South 478 550 38,000  Level Jacksonville Center
08:39AM 32.1508 -78.3214 198° South 478 550 38,000  Level Jacksonville Center
08:40AM 32.0294 -78.3717 199° South 478 550 38,000  Level Jacksonville Center
08:41AM 31.9061 -78.4217 199° South 478 550 38,000  Level Jacksonville Center
08:42AM 31.7825 -78.4692 198° South 473 544 38,000  Level Jacksonville Center
08:43AM 31.6611 -78.5189 199° South 473 544 38,000  Level Jacksonville Center
08:44AM 31.5414 -78.5636 198° South 467 537 38,000  Level Jacksonville Center
08:45AM 31.4200 -78.6106 198° South 467 537 38,000  Level Jacksonville Center
08:46AM 31.2861 -78.6653 199° South 459 528 38,000  Level Jacksonville Center
08:47AM 31.1644 -78.7097 197° South 466 536 38,000  Level Jacksonville Center
08:48AM 31.0447 -78.7536 197° South 459 528 38,000  Level Jacksonville Center
08:49AM 30.9211 -78.8053 200° South 459 528 38,000  Level Jacksonville Center
08:50AM 30.7994 -78.8517 198° South 459 528 38,000  Level Jacksonville Center
08:52AM 30.5717 -78.9389 198° South 483 556 38,000  Level Miami Center
08:53AM 30.4564 -78.9825 198° South 474 545 38,000  Level Miami Center
08:54AM 30.3325 -79.0353 200° South 468 539 38,000  Level Miami Center
08:55AM 30.2167 -79.1047 207° Southwest 468 539 38,000  Level Miami Center
08:56AM 30.1133 -79.1914 216° Southwest 468 539 38,000  Level Miami Center
08:57AM 30.0094 -79.2872 219° Southwest 479 551 38,000  Level Miami Center
08:58AM 29.8997 -79.3592 210° Southwest 474 545 38,000 -60 Level Miami Center
08:59AM 29.7919 -79.4475 215° Southwest 474 545 37,900 -660 Descending Miami Center
09:00AM 29.6944 -79.5383 219° Southwest 467 537 36,700 -1,140 Descending Miami Center
09:01AM 29.5886 -79.6144 212° Southwest 460 529 35,700 -1,860 Descending Miami Center
09:02AM 29.4828 -79.6950 214° Southwest 455 524 33,000 -2,760 Descending Miami Center
09:03AM 29.3747 -79.7756 213° Southwest 455 524 30,200 -2,700 Descending Miami Center
09:04AM 29.2728 -79.8608 216° Southwest 460 529 27,700 -2,460 Descending Miami Center
09:05AM 29.1692 -79.9364 212° Southwest 455 524 25,300 -2,400 Descending Miami Center
09:06AM 29.0714 -80.0169 216° Southwest 455 524 23,000 -2,340 Descending Miami Center
09:07AM 28.9758 -80.0878 213° Southwest 444 511 20,700 -2,280 Descending Miami Center
09:08AM 28.9069 -80.1853 231° Southwest 394 453 18,500 -2,160 Descending Miami Center
09:10AM 28.8333 -80.4167 250° West 378 435 14,000 -1,560 Descending Orlando TRACON
09:11AM 28.8167 -80.5333 261° West 331 381 13,800 -900 Descending Orlando TRACON
09:12AM 28.8167 -80.6333 270° West 308 354 12,300 -1,500 Descending Orlando TRACON
09:13AM 28.8000 -80.7167 257° West 301 346 10,800 -1,200 Descending Orlando TRACON
09:14AM 28.8000 -80.8167 270° West 291 335 9,900 -900 Descending Orlando TRACON
09:15AM 28.8000 -80.9000 270° West 257 296 9,000 -900 Descending Orlando TRACON
09:16AM 28.7833 -80.9667 254° West 242 278 8,100 -1,020 Descending Orlando TRACON
09:17AM 28.7667 -81.0500 257° West 236 272 7,000 -1,080 Descending Orlando TRACON
09:18AM 28.7500 -81.1167 254° West 235 270 6,000 -840 Descending Orlando TRACON
09:19AM 28.7167 -81.1833 240° Southwest 234 269 5,400 -840 Descending Orlando TRACON
09:20AM 28.7000 -81.2500 254° West 224 258 4,400 -1,080 Descending Orlando TRACON
09:21AM 28.6500 -81.2833 210° Southwest 213 245 3,300 -780 Descending Orlando TRACON
09:22AM 28.5833 -81.2833 180° South 191 220 2,900 -780 Descending Orlando TRACON
09:23AM 28.5333 -81.2833 180° South 176 203 1,800 -900 Descending Orlando TRACON
09:24AM 28.5000 -81.2833 180° South 127 146 1,200 -720 Descending Orlando TRACON